sensor_id;sensor_type;location;lat;lon;timestamp;temperature;humidity
62853;DHT22;49205;44.868;38.140;2022-07-01T00:00:05;22.20;66.20
62853;DHT22;49205;44.868;38.140;2022-07-01T00:02:36;22.20;66.00
62853;DHT22;49205;44.868;38.140;2022-07-01T00:05:06;22.20;66.30
62853;DHT22;49205;44.868;38.140;2022-07-01T00:07:48;22.30;66.60
62853;DHT22;49205;44.868;38.140;2022-07-01T00:10:17;22.30;66.60
62853;DHT22;49205;44.868;38.140;2022-07-01T00:12:47;22.30;66.60
62853;DHT22;49205;44.868;38.140;2022-07-01T00:15:17;22.30;66.50
62853;DHT22;49205;44.868;38.140;2022-07-01T00:17:46;22.20;66.40
62853;DHT22;49205;44.868;38.140;2022-07-01T00:20:16;22.10;66.50
62853;DHT22;49205;44.868;38.140;2022-07-01T00:22:46;22.00;66.60
62853;DHT22;49205;44.868;38.140;2022-07-01T00:25:15;21.90;67.20
62853;DHT22;49205;44.868;38.140;2022-07-01T00:27:45;21.90;67.90
62853;DHT22;49205;44.868;38.140;2022-07-01T00:30:15;21.90;68.20
62853;DHT22;49205;44.868;38.140;2022-07-01T00:32:44;21.90;68.50
62853;DHT22;49205;44.868;38.140;2022-07-01T00:35:14;21.90;69.10
62853;DHT22;49205;44.868;38.140;2022-07-01T00:37:44;21.90;68.60
62853;DHT22;49205;44.868;38.140;2022-07-01T00:40:13;21.80;68.60
62853;DHT22;49205;44.868;38.140;2022-07-01T00:42:43;21.80;68.40
62853;DHT22;49205;44.868;38.140;2022-07-01T00:45:12;21.80;68.20
62853;DHT22;49205;44.868;38.140;2022-07-01T00:47:42;21.70;67.90
62853;DHT22;49205;44.868;38.140;2022-07-01T00:50:14;21.60;68.10
62853;DHT22;49205;44.868;38.140;2022-07-01T00:52:44;21.50;68.60
62853;DHT22;49205;44.868;38.140;2022-07-01T00:55:14;21.50;68.50
62853;DHT22;49205;44.868;38.140;2022-07-01T00:57:44;21.50;68.40
62853;DHT22;49205;44.868;38.140;2022-07-01T01:00:15;21.40;68.90
62853;DHT22;49205;44.868;38.140;2022-07-01T01:02:46;21.50;69.20
62853;DHT22;49205;44.868;38.140;2022-07-01T01:05:16;21.50;69.40
62853;DHT22;49205;44.868;38.140;2022-07-01T01:07:49;21.50;69.30
62853;DHT22;49205;44.868;38.140;2022-07-01T01:10:19;21.50;69.50
62853;DHT22;49205;44.868;38.140;2022-07-01T01:12:51;21.60;69.80
62853;DHT22;49205;44.868;38.140;2022-07-01T01:15:20;21.60;70.00
62853;DHT22;49205;44.868;38.140;2022-07-01T01:17:50;21.70;70.00
62853;DHT22;49205;44.868;38.140;2022-07-01T01:20:20;21.70;70.00
62853;DHT22;49205;44.868;38.140;2022-07-01T01:22:49;21.70;70.00
62853;DHT22;49205;44.868;38.140;2022-07-01T01:25:19;21.80;69.80
62853;DHT22;49205;44.868;38.140;2022-07-01T01:27:48;21.80;69.60
62853;DHT22;49205;44.868;38.140;2022-07-01T01:30:18;21.80;69.60
62853;DHT22;49205;44.868;38.140;2022-07-01T01:32:47;21.80;70.10
62853;DHT22;49205;44.868;38.140;2022-07-01T01:35:18;21.80;69.40
62853;DHT22;49205;44.868;38.140;2022-07-01T01:37:47;21.90;69.30
62853;DHT22;49205;44.868;38.140;2022-07-01T01:40:17;21.90;69.30
62853;DHT22;49205;44.868;38.140;2022-07-01T01:42:46;21.90;69.30
62853;DHT22;49205;44.868;38.140;2022-07-01T01:45:16;22.00;69.40
62853;DHT22;49205;44.868;38.140;2022-07-01T01:47:45;22.00;68.30
62853;DHT22;49205;44.868;38.140;2022-07-01T01:50:15;21.90;67.80
62853;DHT22;49205;44.868;38.140;2022-07-01T01:52:44;21.90;67.70
62853;DHT22;49205;44.868;38.140;2022-07-01T01:55:13;21.90;67.40
62853;DHT22;49205;44.868;38.140;2022-07-01T01:57:43;21.90;67.90
62853;DHT22;49205;44.868;38.140;2022-07-01T02:00:13;21.80;68.10
62853;DHT22;49205;44.868;38.140;2022-07-01T02:02:42;21.80;68.00
62853;DHT22;49205;44.868;38.140;2022-07-01T02:05:12;21.80;68.30
62853;DHT22;49205;44.868;38.140;2022-07-01T02:07:42;21.80;68.80
62853;DHT22;49205;44.868;38.140;2022-07-01T02:10:11;21.80;68.90
62853;DHT22;49205;44.868;38.140;2022-07-01T02:12:41;21.80;68.80
62853;DHT22;49205;44.868;38.140;2022-07-01T02:15:10;21.80;68.80
62853;DHT22;49205;44.868;38.140;2022-07-01T02:17:40;21.80;68.10
62853;DHT22;49205;44.868;38.140;2022-07-01T02:20:10;21.80;68.60
62853;DHT22;49205;44.868;38.140;2022-07-01T02:22:42;21.80;69.20
62853;DHT22;49205;44.868;38.140;2022-07-01T02:25:11;21.80;69.30
62853;DHT22;49205;44.868;38.140;2022-07-01T02:27:40;21.80;69.10
62853;DHT22;49205;44.868;38.140;2022-07-01T02:30:11;21.90;69.20
62853;DHT22;49205;44.868;38.140;2022-07-01T02:32:40;21.90;69.30
62853;DHT22;49205;44.868;38.140;2022-07-01T02:35:10;21.80;68.70
62853;DHT22;49205;44.868;38.140;2022-07-01T02:37:41;21.80;68.50
62853;DHT22;49205;44.868;38.140;2022-07-01T02:40:11;21.80;68.80
62853;DHT22;49205;44.868;38.140;2022-07-01T02:42:41;21.80;69.30
62853;DHT22;49205;44.868;38.140;2022-07-01T02:45:10;21.80;69.60
62853;DHT22;49205;44.868;38.140;2022-07-01T02:47:41;21.90;69.30
62853;DHT22;49205;44.868;38.140;2022-07-01T02:50:13;21.90;69.10
62853;DHT22;49205;44.868;38.140;2022-07-01T02:52:42;21.90;69.20
62853;DHT22;49205;44.868;38.140;2022-07-01T02:55:13;21.80;69.40
62853;DHT22;49205;44.868;38.140;2022-07-01T02:57:43;21.80;69.70
62853;DHT22;49205;44.868;38.140;2022-07-01T03:00:14;21.80;69.80
62853;DHT22;49205;44.868;38.140;2022-07-01T03:02:43;21.80;69.60
62853;DHT22;49205;44.868;38.140;2022-07-01T03:05:13;21.80;69.70
62853;DHT22;49205;44.868;38.140;2022-07-01T03:07:42;21.80;69.80
62853;DHT22;49205;44.868;38.140;2022-07-01T03:10:12;21.90;69.80
62853;DHT22;49205;44.868;38.140;2022-07-01T03:12:42;21.90;69.10
62853;DHT22;49205;44.868;38.140;2022-07-01T03:15:13;22.00;68.60
62853;DHT22;49205;44.868;38.140;2022-07-01T03:17:45;22.10;68.60
62853;DHT22;49205;44.868;38.140;2022-07-01T03:20:16;22.10;68.20
62853;DHT22;49205;44.868;38.140;2022-07-01T03:22:46;22.20;67.90
62853;DHT22;49205;44.868;38.140;2022-07-01T03:25:16;22.20;67.60
62853;DHT22;49205;44.868;38.140;2022-07-01T03:27:45;22.20;67.30
62853;DHT22;49205;44.868;38.140;2022-07-01T03:30:16;22.20;67.50
62853;DHT22;49205;44.868;38.140;2022-07-01T03:32:46;22.30;68.10
62853;DHT22;49205;44.868;38.140;2022-07-01T03:35:16;22.40;68.30
62853;DHT22;49205;44.868;38.140;2022-07-01T03:38:04;22.50;68.90
62853;DHT22;49205;44.868;38.140;2022-07-01T03:40:34;22.70;68.00
62853;DHT22;49205;44.868;38.140;2022-07-01T03:43:04;22.80;67.90
62853;DHT22;49205;44.868;38.140;2022-07-01T03:45:33;22.90;67.90
62853;DHT22;49205;44.868;38.140;2022-07-01T03:48:02;23.00;67.90
62853;DHT22;49205;44.868;38.140;2022-07-01T03:50:32;23.10;67.30
62853;DHT22;49205;44.868;38.140;2022-07-01T03:53:02;23.20;67.20
62853;DHT22;49205;44.868;38.140;2022-07-01T03:55:49;23.20;67.10
62853;DHT22;49205;44.868;38.140;2022-07-01T03:58:18;23.40;66.80
62853;DHT22;49205;44.868;38.140;2022-07-01T04:00:48;23.50;66.60
62853;DHT22;49205;44.868;38.140;2022-07-01T04:03:17;23.70;66.30
62853;DHT22;49205;44.868;38.140;2022-07-01T04:05:47;23.80;65.90
62853;DHT22;49205;44.868;38.140;2022-07-01T04:08:16;23.90;65.40
62853;DHT22;49205;44.868;38.140;2022-07-01T04:10:46;24.00;65.10
62853;DHT22;49205;44.868;38.140;2022-07-01T04:13:16;24.10;64.50
62853;DHT22;49205;44.868;38.140;2022-07-01T04:15:45;24.20;63.60
62853;DHT22;49205;44.868;38.140;2022-07-01T04:18:15;24.30;63.10
62853;DHT22;49205;44.868;38.140;2022-07-01T04:20:44;24.30;63.10
62853;DHT22;49205;44.868;38.140;2022-07-01T04:23:15;24.40;61.60
62853;DHT22;49205;44.868;38.140;2022-07-01T04:25:44;24.40;61.40
62853;DHT22;49205;44.868;38.140;2022-07-01T04:28:14;24.30;61.20
62853;DHT22;49205;44.868;38.140;2022-07-01T04:30:43;24.30;61.40
62853;DHT22;49205;44.868;38.140;2022-07-01T04:33:14;24.30;62.40
62853;DHT22;49205;44.868;38.140;2022-07-01T04:35:43;24.40;61.40
62853;DHT22;49205;44.868;38.140;2022-07-01T04:38:13;24.50;61.10
62853;DHT22;49205;44.868;38.140;2022-07-01T04:40:42;24.60;60.80
62853;DHT22;49205;44.868;38.140;2022-07-01T04:43:13;24.80;60.40
62853;DHT22;49205;44.868;38.140;2022-07-01T04:45:43;24.90;59.90
62853;DHT22;49205;44.868;38.140;2022-07-01T04:48:12;25.00;58.90
62853;DHT22;49205;44.868;38.140;2022-07-01T04:50:42;25.00;58.70
62853;DHT22;49205;44.868;38.140;2022-07-01T04:53:13;25.00;58.70
62853;DHT22;49205;44.868;38.140;2022-07-01T04:55:43;25.00;57.90
62853;DHT22;49205;44.868;38.140;2022-07-01T04:58:13;25.00;57.60
62853;DHT22;49205;44.868;38.140;2022-07-01T05:00:42;25.00;57.60
62853;DHT22;49205;44.868;38.140;2022-07-01T05:03:12;25.00;58.00
62853;DHT22;49205;44.868;38.140;2022-07-01T05:05:41;25.00;58.10
62853;DHT22;49205;44.868;38.140;2022-07-01T05:08:11;25.20;58.30
62853;DHT22;49205;44.868;38.140;2022-07-01T05:10:41;25.30;57.20
62853;DHT22;49205;44.868;38.140;2022-07-01T05:13:10;25.40;56.70
62853;DHT22;49205;44.868;38.140;2022-07-01T05:15:40;25.40;56.10
62853;DHT22;49205;44.868;38.140;2022-07-01T05:18:10;25.50;55.90
62853;DHT22;49205;44.868;38.140;2022-07-01T05:20:57;25.50;55.50
62853;DHT22;49205;44.868;38.140;2022-07-01T05:23:44;25.60;55.80
62853;DHT22;49205;44.868;38.140;2022-07-01T05:26:13;25.60;55.40
62853;DHT22;49205;44.868;38.140;2022-07-01T05:28:45;25.70;54.80
62853;DHT22;49205;44.868;38.140;2022-07-01T05:31:15;25.70;54.80
62853;DHT22;49205;44.868;38.140;2022-07-01T05:33:44;25.80;54.80
62853;DHT22;49205;44.868;38.140;2022-07-01T05:36:14;25.90;54.20
62853;DHT22;49205;44.868;38.140;2022-07-01T05:38:44;26.00;54.20
62853;DHT22;49205;44.868;38.140;2022-07-01T05:41:13;26.10;54.20
62853;DHT22;49205;44.868;38.140;2022-07-01T05:43:43;26.20;53.80
62853;DHT22;49205;44.868;38.140;2022-07-01T05:46:13;26.30;52.90
62853;DHT22;49205;44.868;38.140;2022-07-01T05:48:42;26.40;52.80
62853;DHT22;49205;44.868;38.140;2022-07-01T05:51:12;26.30;51.80
62853;DHT22;49205;44.868;38.140;2022-07-01T05:53:41;26.40;51.90
62853;DHT22;49205;44.868;38.140;2022-07-01T05:56:11;26.40;51.00
62853;DHT22;49205;44.868;38.140;2022-07-01T05:59:01;26.40;50.80
62853;DHT22;49205;44.868;38.140;2022-07-01T06:01:30;26.40;51.40
62853;DHT22;49205;44.868;38.140;2022-07-01T06:04:00;26.40;50.60
62853;DHT22;49205;44.868;38.140;2022-07-01T06:06:30;26.40;50.80
62853;DHT22;49205;44.868;38.140;2022-07-01T06:08:59;26.50;50.70
62853;DHT22;49205;44.868;38.140;2022-07-01T06:11:28;26.60;50.50
62853;DHT22;49205;44.868;38.140;2022-07-01T06:13:59;26.80;50.40
62853;DHT22;49205;44.868;38.140;2022-07-01T06:16:28;26.90;50.20
62853;DHT22;49205;44.868;38.140;2022-07-01T06:18:57;27.00;49.70
62853;DHT22;49205;44.868;38.140;2022-07-01T06:21:27;27.10;49.50
62853;DHT22;49205;44.868;38.140;2022-07-01T06:23:56;27.20;49.50
62853;DHT22;49205;44.868;38.140;2022-07-01T06:26:26;27.30;49.70
62853;DHT22;49205;44.868;38.140;2022-07-01T06:28:55;27.40;49.40
62853;DHT22;49205;44.868;38.140;2022-07-01T06:31:25;27.50;49.10
62853;DHT22;49205;44.868;38.140;2022-07-01T06:33:54;27.60;48.90
62853;DHT22;49205;44.868;38.140;2022-07-01T06:36:24;27.70;48.20
62853;DHT22;49205;44.868;38.140;2022-07-01T06:38:53;27.70;47.70
62853;DHT22;49205;44.868;38.140;2022-07-01T06:41:23;27.70;47.10
62853;DHT22;49205;44.868;38.140;2022-07-01T06:44:01;27.70;46.80
62853;DHT22;49205;44.868;38.140;2022-07-01T06:46:27;27.70;47.10
62853;DHT22;49205;44.868;38.140;2022-07-01T06:48:57;27.70;46.90
62853;DHT22;49205;44.868;38.140;2022-07-01T06:51:27;27.70;46.10
62853;DHT22;49205;44.868;38.140;2022-07-01T06:53:56;27.70;46.00
62853;DHT22;49205;44.868;38.140;2022-07-01T06:56:26;27.70;45.80
62853;DHT22;49205;44.868;38.140;2022-07-01T06:58:55;27.70;46.20
62853;DHT22;49205;44.868;38.140;2022-07-01T07:01:25;27.80;46.30
62853;DHT22;49205;44.868;38.140;2022-07-01T07:03:55;27.90;46.00
62853;DHT22;49205;44.868;38.140;2022-07-01T07:06:24;27.90;45.50
62853;DHT22;49205;44.868;38.140;2022-07-01T07:08:54;28.00;45.50
62853;DHT22;49205;44.868;38.140;2022-07-01T07:11:23;28.00;45.70
62853;DHT22;49205;44.868;38.140;2022-07-01T07:13:53;28.10;45.60
62853;DHT22;49205;44.868;38.140;2022-07-01T07:16:22;28.20;45.40
62853;DHT22;49205;44.868;38.140;2022-07-01T07:18:52;28.30;45.00
62853;DHT22;49205;44.868;38.140;2022-07-01T07:21:21;28.40;45.10
62853;DHT22;49205;44.868;38.140;2022-07-01T07:23:51;28.60;44.50
62853;DHT22;49205;44.868;38.140;2022-07-01T07:26:20;28.70;44.40
62853;DHT22;49205;44.868;38.140;2022-07-01T07:28:51;28.70;43.90
62853;DHT22;49205;44.868;38.140;2022-07-01T07:31:20;28.70;44.20
62853;DHT22;49205;44.868;38.140;2022-07-01T07:33:49;28.70;44.20
62853;DHT22;49205;44.868;38.140;2022-07-01T07:36:19;28.70;43.50
62853;DHT22;49205;44.868;38.140;2022-07-01T07:38:48;28.80;42.90
62853;DHT22;49205;44.868;38.140;2022-07-01T07:41:18;28.80;43.60
62853;DHT22;49205;44.868;38.140;2022-07-01T07:43:47;28.80;42.90
62853;DHT22;49205;44.868;38.140;2022-07-01T07:46:26;28.80;42.60
62853;DHT22;49205;44.868;38.140;2022-07-01T07:49:09;28.90;40.90
62853;DHT22;49205;44.868;38.140;2022-07-01T07:51:53;29.00;41.10
62853;DHT22;49205;44.868;38.140;2022-07-01T07:54:38;29.00;41.30
62853;DHT22;49205;44.868;38.140;2022-07-01T07:57:12;29.10;41.00
62853;DHT22;49205;44.868;38.140;2022-07-01T07:59:51;29.10;41.40
62853;DHT22;49205;44.868;38.140;2022-07-01T08:02:41;29.10;41.60
62853;DHT22;49205;44.868;38.140;2022-07-01T08:05:24;29.30;41.20
62853;DHT22;49205;44.868;38.140;2022-07-01T08:08:08;29.40;41.60
62853;DHT22;49205;44.868;38.140;2022-07-01T08:10:41;29.50;40.60
62853;DHT22;49205;44.868;38.140;2022-07-01T08:13:12;29.60;39.10
62853;DHT22;49205;44.868;38.140;2022-07-01T08:15:41;29.60;41.20
62853;DHT22;49205;44.868;38.140;2022-07-01T08:18:11;29.70;40.50
62853;DHT22;49205;44.868;38.140;2022-07-01T08:20:40;29.80;40.00
62853;DHT22;49205;44.868;38.140;2022-07-01T08:23:10;29.90;40.20
62853;DHT22;49205;44.868;38.140;2022-07-01T08:25:40;30.00;40.00
62853;DHT22;49205;44.868;38.140;2022-07-01T08:28:09;30.00;40.30
62853;DHT22;49205;44.868;38.140;2022-07-01T08:30:38;30.10;40.00
62853;DHT22;49205;44.868;38.140;2022-07-01T08:33:08;30.20;39.50
62853;DHT22;49205;44.868;38.140;2022-07-01T08:35:37;30.20;39.20
62853;DHT22;49205;44.868;38.140;2022-07-01T08:38:07;30.20;38.10
62853;DHT22;49205;44.868;38.140;2022-07-01T08:40:36;30.20;38.00
62853;DHT22;49205;44.868;38.140;2022-07-01T08:43:06;30.20;37.70
62853;DHT22;49205;44.868;38.140;2022-07-01T08:45:36;30.20;36.70
62853;DHT22;49205;44.868;38.140;2022-07-01T08:48:06;30.20;37.20
62853;DHT22;49205;44.868;38.140;2022-07-01T08:50:37;30.20;36.90
62853;DHT22;49205;44.868;38.140;2022-07-01T08:53:08;30.20;36.70
62853;DHT22;49205;44.868;38.140;2022-07-01T08:55:38;30.30;36.50
62853;DHT22;49205;44.868;38.140;2022-07-01T08:58:27;30.30;36.90
62853;DHT22;49205;44.868;38.140;2022-07-01T09:01:17;30.40;36.90
62853;DHT22;49205;44.868;38.140;2022-07-01T09:03:50;30.50;36.80
62853;DHT22;49205;44.868;38.140;2022-07-01T09:06:22;30.50;36.40
62853;DHT22;49205;44.868;38.140;2022-07-01T09:08:51;30.50;36.70
62853;DHT22;49205;44.868;38.140;2022-07-01T09:11:27;30.50;37.10
62853;DHT22;49205;44.868;38.140;2022-07-01T09:14:09;30.60;37.00
62853;DHT22;49205;44.868;38.140;2022-07-01T09:16:52;30.60;36.90
62853;DHT22;49205;44.868;38.140;2022-07-01T09:19:24;30.60;37.00
62853;DHT22;49205;44.868;38.140;2022-07-01T09:21:55;30.70;36.60
62853;DHT22;49205;44.868;38.140;2022-07-01T09:29:37;30.60;36.40
62853;DHT22;49205;44.868;38.140;2022-07-01T09:32:07;30.80;36.50
62853;DHT22;49205;44.868;38.140;2022-07-01T09:34:44;30.80;36.80
62853;DHT22;49205;44.868;38.140;2022-07-01T09:37:15;30.80;36.80
62853;DHT22;49205;44.868;38.140;2022-07-01T09:39:49;30.90;36.60
62853;DHT22;49205;44.868;38.140;2022-07-01T09:42:21;30.90;36.60
62853;DHT22;49205;44.868;38.140;2022-07-01T09:47:27;30.90;36.10
62853;DHT22;49205;44.868;38.140;2022-07-01T09:49:57;30.80;35.90
62853;DHT22;49205;44.868;38.140;2022-07-01T09:52:26;30.80;35.90
62853;DHT22;49205;44.868;38.140;2022-07-01T09:54:56;30.80;36.40
62853;DHT22;49205;44.868;38.140;2022-07-01T09:57:25;30.90;36.20
62853;DHT22;49205;44.868;38.140;2022-07-01T09:59:55;31.00;36.90
62853;DHT22;49205;44.868;38.140;2022-07-01T10:02:25;31.00;35.90
62853;DHT22;49205;44.868;38.140;2022-07-01T10:05:11;31.00;35.70
62853;DHT22;49205;44.868;38.140;2022-07-01T10:08:09;31.00;35.60
62853;DHT22;49205;44.868;38.140;2022-07-01T10:13:23;31.10;35.60
62853;DHT22;49205;44.868;38.140;2022-07-01T10:15:53;31.10;35.80
62853;DHT22;49205;44.868;38.140;2022-07-01T10:18:24;31.20;35.10
62853;DHT22;49205;44.868;38.140;2022-07-01T10:20:55;31.20;35.50
62853;DHT22;49205;44.868;38.140;2022-07-01T10:23:42;31.20;35.50
62853;DHT22;49205;44.868;38.140;2022-07-01T10:26:12;31.20;35.00
62853;DHT22;49205;44.868;38.140;2022-07-01T10:28:45;31.20;35.40
62853;DHT22;49205;44.868;38.140;2022-07-01T10:31:19;31.10;34.60
62853;DHT22;49205;44.868;38.140;2022-07-01T10:33:56;31.00;35.20
62853;DHT22;49205;44.868;38.140;2022-07-01T10:36:34;31.10;35.10
62853;DHT22;49205;44.868;38.140;2022-07-01T10:39:08;31.10;34.80
62853;DHT22;49205;44.868;38.140;2022-07-01T10:41:54;31.10;35.10
62853;DHT22;49205;44.868;38.140;2022-07-01T10:44:25;31.20;35.60
62853;DHT22;49205;44.868;38.140;2022-07-01T10:47:07;31.30;35.80
62853;DHT22;49205;44.868;38.140;2022-07-01T10:52:13;31.40;36.00
62853;DHT22;49205;44.868;38.140;2022-07-01T10:54:49;31.40;35.10
62853;DHT22;49205;44.868;38.140;2022-07-01T10:57:32;31.40;35.50
62853;DHT22;49205;44.868;38.140;2022-07-01T11:00:23;31.40;35.30
62853;DHT22;49205;44.868;38.140;2022-07-01T11:02:28;31.40;35.80
62853;DHT22;49205;44.868;38.140;2022-07-01T11:05:00;31.50;35.60
62853;DHT22;49205;44.868;38.140;2022-07-01T11:07:35;31.50;35.30
62853;DHT22;49205;44.868;38.140;2022-07-01T11:10:06;31.40;35.30
62853;DHT22;49205;44.868;38.140;2022-07-01T11:12:35;31.30;35.60
62853;DHT22;49205;44.868;38.140;2022-07-01T11:15:06;31.40;35.90
62853;DHT22;49205;44.868;38.140;2022-07-01T11:17:47;31.40;36.70
62853;DHT22;49205;44.868;38.140;2022-07-01T11:20:12;31.50;37.20
62853;DHT22;49205;44.868;38.140;2022-07-01T11:22:42;31.50;36.90
62853;DHT22;49205;44.868;38.140;2022-07-01T11:25:12;31.50;36.70
62853;DHT22;49205;44.868;38.140;2022-07-01T11:27:44;31.50;37.60
62853;DHT22;49205;44.868;38.140;2022-07-01T11:30:14;31.50;37.10
62853;DHT22;49205;44.868;38.140;2022-07-01T11:32:51;31.40;37.40
62853;DHT22;49205;44.868;38.140;2022-07-01T11:35:18;31.50;37.80
62853;DHT22;49205;44.868;38.140;2022-07-01T11:38:16;31.50;37.80
62853;DHT22;49205;44.868;38.140;2022-07-01T11:41:06;31.50;37.60
62853;DHT22;49205;44.868;38.140;2022-07-01T11:43:39;31.60;37.10
62853;DHT22;49205;44.868;38.140;2022-07-01T11:46:09;31.60;36.70
62853;DHT22;49205;44.868;38.140;2022-07-01T11:48:44;31.60;37.00
62853;DHT22;49205;44.868;38.140;2022-07-01T11:51:15;31.50;36.50
62853;DHT22;49205;44.868;38.140;2022-07-01T11:53:46;31.50;36.70
62853;DHT22;49205;44.868;38.140;2022-07-01T11:59:07;31.50;38.50
62853;DHT22;49205;44.868;38.140;2022-07-01T12:01:37;31.60;37.30
62853;DHT22;49205;44.868;38.140;2022-07-01T12:04:08;31.70;37.20
62853;DHT22;49205;44.868;38.140;2022-07-01T12:06:38;31.70;36.90
62853;DHT22;49205;44.868;38.140;2022-07-01T12:09:16;31.70;37.70
62853;DHT22;49205;44.868;38.140;2022-07-01T12:11:56;31.70;37.30
62853;DHT22;49205;44.868;38.140;2022-07-01T12:14:31;31.70;37.00
62853;DHT22;49205;44.868;38.140;2022-07-01T12:17:03;31.80;37.10
62853;DHT22;49205;44.868;38.140;2022-07-01T12:19:41;31.80;37.50
62853;DHT22;49205;44.868;38.140;2022-07-01T12:22:13;31.80;37.20
62853;DHT22;49205;44.868;38.140;2022-07-01T12:24:43;31.90;37.30
62853;DHT22;49205;44.868;38.140;2022-07-01T12:27:12;31.90;37.60
62853;DHT22;49205;44.868;38.140;2022-07-01T12:29:54;32.00;38.00
62853;DHT22;49205;44.868;38.140;2022-07-01T12:32:27;32.10;37.50
62853;DHT22;49205;44.868;38.140;2022-07-01T12:34:58;32.10;38.00
62853;DHT22;49205;44.868;38.140;2022-07-01T12:37:33;32.10;37.30
62853;DHT22;49205;44.868;38.140;2022-07-01T12:40:02;32.10;37.40
62853;DHT22;49205;44.868;38.140;2022-07-01T12:42:36;32.10;37.20
62853;DHT22;49205;44.868;38.140;2022-07-01T12:45:11;32.00;37.90
62853;DHT22;49205;44.868;38.140;2022-07-01T12:47:50;32.00;37.30
62853;DHT22;49205;44.868;38.140;2022-07-01T12:50:37;32.00;37.60
62853;DHT22;49205;44.868;38.140;2022-07-01T12:53:18;32.00;37.00
62853;DHT22;49205;44.868;38.140;2022-07-01T12:55:50;32.00;37.60
62853;DHT22;49205;44.868;38.140;2022-07-01T12:58:21;32.00;38.10
62853;DHT22;49205;44.868;38.140;2022-07-01T13:00:55;32.00;38.30
62853;DHT22;49205;44.868;38.140;2022-07-01T13:03:27;32.00;39.00
62853;DHT22;49205;44.868;38.140;2022-07-01T13:05:57;32.00;38.50
62853;DHT22;49205;44.868;38.140;2022-07-01T13:08:26;32.00;39.30
62853;DHT22;49205;44.868;38.140;2022-07-01T13:10:55;32.00;40.00
62853;DHT22;49205;44.868;38.140;2022-07-01T13:13:25;32.00;39.70
62853;DHT22;49205;44.868;38.140;2022-07-01T13:15:54;32.00;40.30
62853;DHT22;49205;44.868;38.140;2022-07-01T13:18:23;31.80;40.80
62853;DHT22;49205;44.868;38.140;2022-07-01T13:20:53;31.80;41.10
62853;DHT22;49205;44.868;38.140;2022-07-01T13:23:22;31.70;41.80
62853;DHT22;49205;44.868;38.140;2022-07-01T13:25:52;31.60;42.10
62853;DHT22;49205;44.868;38.140;2022-07-01T13:28:21;31.60;42.80
62853;DHT22;49205;44.868;38.140;2022-07-01T13:30:55;31.60;42.90
62853;DHT22;49205;44.868;38.140;2022-07-01T13:33:24;31.50;42.40
62853;DHT22;49205;44.868;38.140;2022-07-01T13:35:54;31.40;43.00
62853;DHT22;49205;44.868;38.140;2022-07-01T13:38:23;31.40;43.60
62853;DHT22;49205;44.868;38.140;2022-07-01T13:40:53;31.40;43.00
62853;DHT22;49205;44.868;38.140;2022-07-01T13:43:22;31.30;42.00
62853;DHT22;49205;44.868;38.140;2022-07-01T13:45:51;31.30;42.30
62853;DHT22;49205;44.868;38.140;2022-07-01T13:48:21;31.30;42.50
62853;DHT22;49205;44.868;38.140;2022-07-01T13:50:50;31.30;42.80
62853;DHT22;49205;44.868;38.140;2022-07-01T13:53:20;31.20;41.40
62853;DHT22;49205;44.868;38.140;2022-07-01T13:55:49;31.10;40.90
62853;DHT22;49205;44.868;38.140;2022-07-01T13:58:18;31.00;40.80
62853;DHT22;49205;44.868;38.140;2022-07-01T14:00:48;30.90;41.20
62853;DHT22;49205;44.868;38.140;2022-07-01T14:03:17;30.80;42.00
62853;DHT22;49205;44.868;38.140;2022-07-01T14:05:47;30.80;41.60
62853;DHT22;49205;44.868;38.140;2022-07-01T14:08:16;30.90;41.70
62853;DHT22;49205;44.868;38.140;2022-07-01T14:10:46;30.90;41.60
62853;DHT22;49205;44.868;38.140;2022-07-01T14:13:15;31.00;41.80
62853;DHT22;49205;44.868;38.140;2022-07-01T14:15:46;31.10;41.90
62853;DHT22;49205;44.868;38.140;2022-07-01T14:18:16;31.10;41.30
62853;DHT22;49205;44.868;38.140;2022-07-01T14:20:45;31.00;41.30
62853;DHT22;49205;44.868;38.140;2022-07-01T14:23:15;30.80;40.90
62853;DHT22;49205;44.868;38.140;2022-07-01T14:25:44;30.70;41.10
62853;DHT22;49205;44.868;38.140;2022-07-01T14:28:13;30.60;42.20
62853;DHT22;49205;44.868;38.140;2022-07-01T14:30:43;30.60;42.00
62853;DHT22;49205;44.868;38.140;2022-07-01T14:33:13;30.50;41.90
62853;DHT22;49205;44.868;38.140;2022-07-01T14:35:43;30.40;42.10
62853;DHT22;49205;44.868;38.140;2022-07-01T14:38:13;30.30;42.30
62853;DHT22;49205;44.868;38.140;2022-07-01T14:40:43;30.20;42.60
62853;DHT22;49205;44.868;38.140;2022-07-01T14:43:12;30.20;42.70
62853;DHT22;49205;44.868;38.140;2022-07-01T14:45:41;30.20;43.00
62853;DHT22;49205;44.868;38.140;2022-07-01T14:48:11;30.20;43.80
62853;DHT22;49205;44.868;38.140;2022-07-01T14:50:41;30.20;43.30
62853;DHT22;49205;44.868;38.140;2022-07-01T14:53:10;30.20;43.40
62853;DHT22;49205;44.868;38.140;2022-07-01T14:55:40;30.20;43.00
62853;DHT22;49205;44.868;38.140;2022-07-01T14:58:10;30.10;43.10
62853;DHT22;49205;44.868;38.140;2022-07-01T15:00:39;30.10;43.20
62853;DHT22;49205;44.868;38.140;2022-07-01T15:03:08;30.10;43.20
62853;DHT22;49205;44.868;38.140;2022-07-01T15:05:38;30.00;43.10
62853;DHT22;49205;44.868;38.140;2022-07-01T15:08:07;30.00;43.00
62853;DHT22;49205;44.868;38.140;2022-07-01T15:10:37;29.90;43.00
62853;DHT22;49205;44.868;38.140;2022-07-01T15:13:06;29.90;43.40
62853;DHT22;49205;44.868;38.140;2022-07-01T15:15:36;29.80;43.40
62853;DHT22;49205;44.868;38.140;2022-07-01T15:18:06;29.80;43.00
62853;DHT22;49205;44.868;38.140;2022-07-01T15:20:35;29.70;43.20
62853;DHT22;49205;44.868;38.140;2022-07-01T15:23:04;29.70;43.50
62853;DHT22;49205;44.868;38.140;2022-07-01T15:25:34;29.70;43.10
62853;DHT22;49205;44.868;38.140;2022-07-01T15:28:03;29.60;42.70
62853;DHT22;49205;44.868;38.140;2022-07-01T15:30:32;29.50;42.90
62853;DHT22;49205;44.868;38.140;2022-07-01T15:33:02;29.40;43.10
62853;DHT22;49205;44.868;38.140;2022-07-01T15:35:31;29.40;42.70
62853;DHT22;49205;44.868;38.140;2022-07-01T15:38:01;29.30;42.50
62853;DHT22;49205;44.868;38.140;2022-07-01T15:40:31;29.20;42.30
62853;DHT22;49205;44.868;38.140;2022-07-01T15:43:01;29.10;42.00
62853;DHT22;49205;44.868;38.140;2022-07-01T15:45:30;29.10;42.60
62853;DHT22;49205;44.868;38.140;2022-07-01T15:48:00;29.00;42.60
62853;DHT22;49205;44.868;38.140;2022-07-01T15:50:38;29.00;42.20
62853;DHT22;49205;44.868;38.140;2022-07-01T15:53:09;28.90;42.20
62853;DHT22;49205;44.868;38.140;2022-07-01T15:55:38;28.80;42.40